createdAt,value
2022-11-22T00:00:06.507Z,47.5
2022-11-22T00:02:04.042Z,47.1
2022-11-22T00:04:03.520Z,47
2022-11-22T00:06:03.177Z,44.9
2022-11-22T00:08:03.158Z,42.6
2022-11-22T00:10:03.242Z,42.5
2022-11-22T00:12:02.894Z,46.2
2022-11-22T00:14:02.420Z,48.4
2022-11-22T00:16:03.907Z,47.2
2022-11-22T00:18:02.087Z,40.5
2022-11-22T00:20:02.057Z,40.3
2022-11-22T00:22:01.569Z,46.2
2022-11-22T00:24:01.342Z,46.2
2022-11-22T00:26:01.148Z,43.5
2022-11-22T00:28:00.959Z,44.8
2022-11-22T00:30:00.975Z,46.5
2022-11-22T00:32:00.898Z,45.3
2022-11-22T00:34:00.801Z,44
2022-11-22T00:36:00.203Z,45.8
2022-11-22T00:38:00.025Z,44.5
2022-11-22T00:39:59.856Z,45.3
2022-11-22T00:41:59.747Z,46.6
2022-11-22T00:43:59.533Z,42.2
2022-11-22T00:46:00.123Z,41.7
2022-11-22T00:47:58.992Z,42.2
2022-11-22T00:49:58.803Z,40.2
2022-11-22T00:51:58.593Z,39.2
2022-11-22T00:53:58.388Z,40.6
2022-11-22T00:55:58.167Z,40.5
2022-11-22T00:57:58.030Z,44.7
2022-11-22T00:59:57.730Z,41.6
2022-11-22T01:01:57.624Z,42.1
2022-11-22T01:03:57.373Z,42.9
2022-11-22T01:05:57.212Z,41.4
2022-11-22T01:07:57.127Z,45.7
2022-11-22T01:09:56.887Z,45.9
2022-11-22T01:11:56.628Z,40
2022-11-22T01:13:56.402Z,44.2
2022-11-22T01:15:59.013Z,38.7
2022-11-22T01:17:55.978Z,41.8
2022-11-22T01:19:55.798Z,42.3
2022-11-22T01:21:55.677Z,39.5
2022-11-22T01:23:55.416Z,38.7
2022-11-22T01:25:55.189Z,41.2
2022-11-22T01:27:55.013Z,40.8
2022-11-22T01:29:54.837Z,43.2
2022-11-22T01:31:54.546Z,39.2
2022-11-22T01:33:54.347Z,40.1
2022-11-22T01:35:54.433Z,39.2
2022-11-22T01:37:54.147Z,39.7
2022-11-22T01:39:53.814Z,40.1
2022-11-22T01:41:53.662Z,37.9
2022-11-22T01:43:53.455Z,39.8
2022-11-22T01:45:55.076Z,43.9
2022-11-22T01:47:53.125Z,46.9
2022-11-22T01:49:56.937Z,41.4
2022-11-22T01:51:57.464Z,42.7
2022-11-22T01:53:55.823Z,40
2022-11-22T01:55:53.053Z,41.1
2022-11-22T01:57:52.839Z,38.3
2022-11-22T01:59:57.567Z,41.7
2022-11-22T02:01:52.732Z,41.8
2022-11-22T02:03:55.673Z,42.6
2022-11-22T02:05:52.684Z,40.5
2022-11-22T02:07:57.341Z,42.1
2022-11-22T02:09:52.416Z,44.3
2022-11-22T02:11:53.621Z,43.1
2022-11-22T02:13:52.016Z,43
2022-11-22T02:15:51.638Z,41.1
2022-11-22T02:17:50.241Z,42.5
2022-11-22T02:19:49.980Z,44.1
2022-11-22T02:21:57.746Z,40.7
2022-11-22T02:23:55.978Z,39.5
2022-11-22T02:25:52.227Z,42.5
2022-11-22T02:27:50.204Z,42
2022-11-22T02:29:49.071Z,38.8
2022-11-22T02:31:48.829Z,40.7
2022-11-22T02:33:48.737Z,40.1
2022-11-22T02:35:48.892Z,45.1
2022-11-22T02:37:50.623Z,37.1
2022-11-22T02:39:52.370Z,44
2022-11-22T02:41:49.077Z,44.1
2022-11-22T02:43:47.757Z,46.2
2022-11-22T02:45:47.571Z,43.7
2022-11-22T02:47:47.289Z,46.3
2022-11-22T02:49:47.181Z,43.2
2022-11-22T02:51:47.387Z,45.3
2022-11-22T02:53:49.118Z,42.5
2022-11-22T02:55:46.569Z,46.9
2022-11-22T02:57:46.293Z,44.8
2022-11-22T02:59:46.183Z,46.2
2022-11-22T03:01:46.647Z,49.2
2022-11-22T03:03:45.786Z,45.1
2022-11-22T03:05:45.695Z,47.2
2022-11-22T03:07:45.511Z,47.9
2022-11-22T03:09:45.218Z,41.6
2022-11-22T03:11:45.023Z,46.2
2022-11-22T03:13:44.963Z,45.3
2022-11-22T03:15:47.805Z,45.3
2022-11-22T03:17:44.441Z,41.6
2022-11-22T03:19:44.257Z,46.7
2022-11-22T03:21:44.122Z,44.6
2022-11-22T03:23:43.856Z,45.5
2022-11-22T03:25:43.736Z,49.2
2022-11-22T03:27:43.781Z,44.9
2022-11-22T03:29:43.317Z,40.4
2022-11-22T03:31:43.110Z,47.6
2022-11-22T03:33:42.881Z,42.1
2022-11-22T03:35:42.667Z,44.3
2022-11-22T03:37:42.461Z,45.5
2022-11-22T03:39:42.385Z,45.2
2022-11-22T03:41:42.218Z,48.8
2022-11-22T03:43:41.888Z,43.7
2022-11-22T03:45:44.732Z,47.1
2022-11-22T03:47:41.572Z,50.7
2022-11-22T03:49:41.366Z,48
2022-11-22T03:51:41.271Z,43.5
2022-11-22T03:53:41.066Z,41.6
2022-11-22T03:55:40.657Z,44.7
2022-11-22T03:57:40.600Z,43
2022-11-22T03:59:40.321Z,48.1
2022-11-22T04:01:40.326Z,50
2022-11-22T04:03:40.076Z,46.9
2022-11-22T04:05:39.796Z,49.3
2022-11-22T04:07:39.599Z,45.3
2022-11-22T04:09:39.346Z,49.4
2022-11-22T04:11:39.174Z,47.9
2022-11-22T04:13:39.026Z,45
2022-11-22T04:15:39.115Z,40.4
2022-11-22T04:17:40.126Z,42.3
2022-11-22T04:19:38.386Z,43.7
2022-11-22T04:21:38.201Z,45.5
2022-11-22T04:23:37.966Z,47.9
2022-11-22T04:25:39.936Z,44.3
2022-11-22T04:27:37.533Z,48.9
2022-11-22T04:29:37.338Z,45
2022-11-22T04:31:37.352Z,41.8
2022-11-22T04:33:37.098Z,48.7
2022-11-22T04:35:37.519Z,51.5
2022-11-22T04:37:36.597Z,46.4
2022-11-22T04:39:36.584Z,48.6
2022-11-22T04:41:36.250Z,40.8
2022-11-22T04:43:36.386Z,45.7
2022-11-22T04:45:36.239Z,47
2022-11-22T04:47:35.611Z,38.9
2022-11-22T04:49:35.918Z,48.7
2022-11-22T04:51:35.340Z,47.7
2022-11-22T04:53:35.126Z,47.7
2022-11-22T04:55:35.226Z,41.7
2022-11-22T04:57:34.830Z,41.7
2022-11-22T04:59:34.596Z,41.8
2022-11-22T05:01:34.743Z,45.4
2022-11-22T05:03:34.374Z,44.2
2022-11-22T05:05:35.684Z,45.7
2022-11-22T05:07:34.072Z,42.5
2022-11-22T05:09:33.803Z,47.5
2022-11-22T05:11:33.621Z,35.9
2022-11-22T05:13:36.026Z,41.8
2022-11-22T05:15:33.308Z,42.7
2022-11-22T05:17:33.185Z,46.3
2022-11-22T05:19:32.966Z,40.5
2022-11-22T05:21:33.458Z,45.5
2022-11-22T05:23:33.455Z,43.8
2022-11-22T05:25:32.541Z,44.7
2022-11-22T05:27:32.360Z,49.7
2022-11-22T05:29:32.432Z,42
2022-11-22T05:31:33.680Z,40.7
2022-11-22T05:33:31.756Z,39.7
2022-11-22T05:35:31.667Z,40.4
2022-11-22T05:37:31.405Z,51
2022-11-22T05:39:31.933Z,39.2
2022-11-22T05:41:31.204Z,44.7
2022-11-22T05:43:31.173Z,43.7
2022-11-22T05:45:30.796Z,40.9
2022-11-22T05:47:34.845Z,43.4
2022-11-22T05:49:30.861Z,50.6
2022-11-22T05:51:34.172Z,52.6
2022-11-22T05:53:30.124Z,59.7
2022-11-22T05:55:30.425Z,48.6
2022-11-22T05:57:31.753Z,45.6
2022-11-22T05:59:29.873Z,43.9
2022-11-22T06:01:29.652Z,42.3
2022-11-22T06:03:29.557Z,41.6
2022-11-22T06:05:29.859Z,38.9
2022-11-22T06:07:29.537Z,39
2022-11-22T06:09:29.111Z,50.6
2022-11-22T06:11:28.848Z,47.3
2022-11-22T06:13:28.464Z,44.4
2022-11-22T06:15:29.676Z,41.4
2022-11-22T06:17:28.169Z,34.9
2022-11-22T06:19:28.571Z,38
2022-11-22T06:21:27.910Z,43.9
2022-11-22T06:23:28.606Z,39.7
2022-11-22T06:25:27.815Z,42.5
2022-11-22T06:27:27.463Z,35.6
2022-11-22T06:29:28.630Z,36.1
2022-11-22T06:31:28.003Z,34.4
2022-11-22T06:33:27.192Z,37
2022-11-22T06:35:26.812Z,36.4
2022-11-22T06:37:26.653Z,37.4
2022-11-22T06:39:26.575Z,33.1
2022-11-22T06:41:30.532Z,32.8
2022-11-22T06:43:27.321Z,38.9
2022-11-22T06:45:26.090Z,31.2
2022-11-22T06:47:25.790Z,30.2
2022-11-22T06:49:25.596Z,30.5
2022-11-22T06:51:27.702Z,28.4
2022-11-22T06:53:46.379Z,29.8
2022-11-22T06:55:48.982Z,30.7
2022-11-22T06:57:24.955Z,28.1
2022-11-22T06:59:24.932Z,29.5
2022-11-22T07:01:27.292Z,26.1
2022-11-22T07:03:24.482Z,28.8
2022-11-22T07:05:26.034Z,27.5
2022-11-22T07:07:24.283Z,28
2022-11-22T07:09:24.161Z,29.8
2022-11-22T07:11:25.924Z,28.3
2022-11-22T07:13:23.721Z,27.9
2022-11-22T07:15:23.552Z,31
2022-11-22T07:17:23.391Z,30.7
2022-11-22T07:19:23.262Z,35.8
2022-11-22T07:21:24.142Z,33
2022-11-22T07:23:23.096Z,29.7
2022-11-22T07:25:22.890Z,26.5
2022-11-22T07:27:22.662Z,30.8
2022-11-22T07:29:22.557Z,31
2022-11-22T07:31:22.375Z,27.2
2022-11-22T07:33:22.176Z,45.5
2022-11-22T07:35:22.122Z,55.8
2022-11-22T07:37:21.949Z,40.4
2022-11-22T07:39:21.745Z,38.3
2022-11-22T07:41:21.925Z,30.8
2022-11-22T07:43:21.416Z,29.7
2022-11-22T07:45:21.338Z,39.5
2022-11-22T07:47:23.033Z,31.3
2022-11-22T07:49:21.389Z,29.4
2022-11-22T07:51:20.983Z,26.9
2022-11-22T07:53:20.866Z,26.6
2022-11-22T07:55:20.616Z,27.3
2022-11-22T07:57:20.418Z,23.8
2022-11-22T07:59:20.435Z,24.6
2022-11-22T08:01:20.357Z,25
2022-11-22T08:03:24.131Z,24.4
2022-11-22T08:05:20.473Z,25.5
2022-11-22T08:07:19.824Z,24.7
2022-11-22T08:09:19.598Z,22.9
2022-11-22T08:11:19.444Z,21.7
2022-11-22T08:13:19.455Z,23.9
2022-11-22T08:15:19.322Z,25.5
2022-11-22T08:17:18.967Z,23.4
2022-11-22T08:19:19.012Z,23.6
2022-11-22T08:21:19.020Z,26.3
2022-11-22T08:23:18.734Z,22.5
2022-11-22T08:25:18.712Z,21.2
2022-11-22T08:27:18.484Z,21.3
2022-11-22T08:29:18.189Z,24
2022-11-22T08:31:18.555Z,21.4
2022-11-22T08:33:17.888Z,22.1
2022-11-22T08:35:17.867Z,25
2022-11-22T08:37:18.013Z,25.1
2022-11-22T08:39:17.469Z,23.8
2022-11-22T08:41:17.448Z,28.5
2022-11-22T08:43:17.412Z,29.3
2022-11-22T08:45:17.042Z,27.5
2022-11-22T08:47:17.200Z,32.5
2022-11-22T08:49:17.184Z,26.1
2022-11-22T08:51:16.693Z,24.8
2022-11-22T08:53:16.551Z,21.5
2022-11-22T08:55:16.562Z,27.5
2022-11-22T08:57:16.210Z,27.2
2022-11-22T08:59:16.302Z,25.8
2022-11-22T09:01:17.994Z,28.8
2022-11-22T09:03:15.829Z,28.1
2022-11-22T09:05:15.734Z,28.4
2022-11-22T09:09:36.418Z,28.9
2022-11-22T09:11:17.201Z,29
2022-11-22T09:13:15.164Z,27.6
2022-11-22T09:15:15.281Z,26.6
2022-11-22T09:17:18.126Z,26
2022-11-22T09:19:14.868Z,23.5
2022-11-22T09:21:16.616Z,23.6
2022-11-22T09:23:14.728Z,22.3
2022-11-22T09:25:14.291Z,20.1
2022-11-22T09:27:14.004Z,24.6
2022-11-22T09:29:14.069Z,21.8
2022-11-22T09:31:15.981Z,24.1
2022-11-22T09:33:13.653Z,24
2022-11-22T09:35:13.806Z,20.2
2022-11-22T09:37:13.403Z,23.4
2022-11-22T09:39:13.284Z,24.6
2022-11-22T09:41:22.616Z,22.3
2022-11-22T09:43:23.579Z,23.2
2022-11-22T09:45:34.887Z,21.9
2022-11-22T09:47:26.757Z,23.9
2022-11-22T09:49:26.543Z,21.2
2022-11-22T09:51:17.886Z,23.4
2022-11-22T09:53:19.746Z,26.1
2022-11-22T09:55:24.184Z,26.9
2022-11-22T09:57:16.400Z,27.5
2022-11-22T09:59:17.822Z,28.3
2022-11-22T10:01:16.886Z,25.5
2022-11-22T10:03:19.951Z,24.3
2022-11-22T10:05:16.943Z,23.9
2022-11-22T10:07:17.909Z,28.4
2022-11-22T10:09:25.243Z,29.6
2022-11-22T10:11:23.494Z,26.8
2022-11-22T10:13:16.360Z,27.9
2022-11-22T10:15:21.895Z,25
2022-11-22T10:17:23.092Z,27.3
2022-11-22T10:19:15.908Z,27.6
2022-11-22T10:21:12.214Z,25.3
2022-11-22T10:23:16.377Z,26.6
2022-11-22T10:25:16.680Z,26.5
2022-11-22T10:27:12.504Z,28.8
2022-11-22T10:29:22.081Z,27.7
2022-11-22T10:31:16.142Z,26.9
2022-11-22T10:33:18.009Z,25.7
2022-11-22T10:35:27.180Z,27.6
2022-11-22T10:37:19.355Z,25.8
2022-11-22T10:39:18.759Z,28
2022-11-22T10:41:23.374Z,30.9
2022-11-22T10:43:28.305Z,31.4
2022-11-22T10:45:16.655Z,28.7
2022-11-22T10:47:16.198Z,30.4
2022-11-22T10:49:19.556Z,31
2022-11-22T10:51:17.708Z,28.5
2022-11-22T10:53:18.722Z,26.6
2022-11-22T10:55:22.511Z,28.6
2022-11-22T10:57:28.414Z,33.1
2022-11-22T10:59:28.803Z,31.8
2022-11-22T11:01:17.224Z,30.4
2022-11-22T11:03:16.359Z,29.7
2022-11-22T11:05:13.944Z,31.2
2022-11-22T11:07:15.262Z,32.4
2022-11-22T11:11:07.951Z,27.9
2022-11-22T11:13:19.646Z,23.7
2022-11-22T11:15:17.674Z,27.5
2022-11-22T11:17:07.373Z,23.6
2022-11-22T11:19:16.821Z,23.8
2022-11-22T11:21:10.768Z,23.1
2022-11-22T11:23:16.500Z,23.3
2022-11-22T11:25:29.904Z,23.8
2022-11-22T11:27:08.442Z,24.1
2022-11-22T11:29:37.893Z,23.8
2022-11-22T11:31:08.666Z,19.2
2022-11-22T11:33:17.987Z,20.9
2022-11-22T11:35:06.564Z,20.2
2022-11-22T11:37:11.824Z,23.4
2022-11-22T11:39:19.278Z,23.2
2022-11-22T11:41:22.375Z,18.9
2022-11-22T11:43:15.270Z,17.4
2022-11-22T11:45:27.106Z,18.3
2022-11-22T11:47:05.685Z,14.5
2022-11-22T11:49:10.627Z,15
2022-11-22T11:51:11.778Z,14.2
2022-11-22T11:53:21.216Z,14.3
2022-11-22T11:55:15.512Z,16.7
2022-11-22T11:57:10.084Z,16.9
2022-11-22T11:59:11.513Z,12.2
2022-11-22T12:01:10.266Z,14.7
2022-11-22T12:03:06.812Z,15.2
2022-11-22T12:05:07.149Z,14.4
2022-11-22T12:07:17.808Z,13.3
2022-11-22T12:09:27.104Z,14.9
2022-11-22T12:11:11.186Z,15.8
2022-11-22T12:13:13.194Z,14.2
2022-11-22T12:15:12.362Z,14.7
2022-11-22T12:17:11.798Z,15.8
2022-11-22T12:19:14.943Z,12.2
2022-11-22T12:21:15.868Z,14
2022-11-22T12:23:15.478Z,14.7
2022-11-22T12:25:35.848Z,13.2
2022-11-22T12:27:04.048Z,15.6
2022-11-22T12:29:04.276Z,15.8
2022-11-22T12:31:14.829Z,12.6
2022-11-22T12:33:07.443Z,12.7
2022-11-22T12:35:11.466Z,12.6
2022-11-22T12:37:07.033Z,11.9
2022-11-22T12:39:05.086Z,13.4
2022-11-22T12:41:07.455Z,14.6
2022-11-22T12:43:07.626Z,13.4
2022-11-22T12:45:07.568Z,12.3
2022-11-22T12:47:08.153Z,12.1
2022-11-22T12:49:10.332Z,15.3
2022-11-22T12:51:11.692Z,11
2022-11-22T12:53:10.646Z,14
2022-11-22T12:55:08.212Z,12.7
2022-11-22T12:57:10.420Z,11.9
2022-11-22T12:59:18.337Z,11.4
2022-11-22T13:01:12.404Z,12.9
2022-11-22T13:03:08.249Z,12.7
2022-11-22T13:05:08.977Z,12.7
2022-11-22T13:07:10.851Z,13.9
2022-11-22T13:09:05.667Z,13
2022-11-22T13:11:10.881Z,13.4
2022-11-22T13:13:03.923Z,18.2
2022-11-22T13:15:02.381Z,14.8
2022-11-22T13:17:06.684Z,13.1
2022-11-22T13:19:05.048Z,12.3
2022-11-22T13:21:09.624Z,13.8
2022-11-22T13:23:18.531Z,12.9
2022-11-22T13:25:28.373Z,17.2
2022-11-22T13:27:11.743Z,13.5
2022-11-22T13:29:09.196Z,16
2022-11-22T13:31:12.691Z,15.9
2022-11-22T13:33:01.018Z,14.7
2022-11-22T13:35:16.705Z,14.5
2022-11-22T13:37:07.574Z,15.7
2022-11-22T13:39:03.768Z,12.9
2022-11-22T13:41:21.782Z,14.3
2022-11-22T13:43:29.878Z,15.9
2022-11-22T13:45:20.197Z,12.9
2022-11-22T13:47:01.432Z,10.1
2022-11-22T13:49:14.076Z,15.9
2022-11-22T13:51:01.307Z,14.4
2022-11-22T13:53:16.659Z,12.2
2022-11-22T13:55:25.226Z,11.9
2022-11-22T13:57:02.553Z,13.1
2022-11-22T13:59:12.034Z,11.5
2022-11-22T14:00:59.980Z,9.2
2022-11-22T14:03:23.691Z,10.2
2022-11-22T14:04:59.592Z,12.5
2022-11-22T14:07:04.625Z,10.9
2022-11-22T14:09:16.401Z,12.9
2022-11-22T14:11:13.342Z,11.8
2022-11-22T14:13:15.284Z,10.2
2022-11-22T14:15:19.087Z,11.5
2022-11-22T14:17:12.088Z,12.7
2022-11-22T14:19:17.515Z,11
2022-11-22T14:21:04.189Z,10.2
2022-11-22T14:23:04.430Z,10.6
2022-11-22T14:25:11.390Z,11.4
2022-11-22T14:27:10.443Z,10.9
2022-11-22T14:29:20.993Z,10.9
2022-11-22T14:30:58.405Z,11.1
2022-11-22T14:33:02.208Z,13
2022-11-22T14:35:28.985Z,10.9
2022-11-22T14:37:27.454Z,9.3
2022-11-22T14:38:57.904Z,11.6
2022-11-22T14:41:27.241Z,10.8
2022-11-22T14:43:00.873Z,9.7
2022-11-22T14:44:58.720Z,10.4
2022-11-22T14:47:03.986Z,11.9
2022-11-22T14:49:04.261Z,11.5
2022-11-22T14:51:05.613Z,10.1
2022-11-22T14:52:59.787Z,10.5
2022-11-22T14:55:00.106Z,8.2
2022-11-22T14:57:04.503Z,11.9
2022-11-22T14:59:09.471Z,11.5
2022-11-22T15:01:19.828Z,9.5
2022-11-22T15:03:26.182Z,10
2022-11-22T15:09:21.292Z,13
2022-11-22T15:09:21.750Z,13.8
2022-11-22T15:09:33.362Z,10.2
2022-11-22T15:11:21.019Z,8.8
2022-11-22T15:13:15.373Z,10.8
2022-11-22T15:58:56.353Z,12.1
2022-11-22T16:01:01.364Z,10.8
2022-11-22T16:02:56.793Z,12
2022-11-22T16:06:05.399Z,11.6
2022-11-22T16:06:55.562Z,13.2
2022-11-22T16:08:57.900Z,11
2022-11-22T16:10:54.165Z,10.2
2022-11-22T16:12:54.306Z,10.3
2022-11-22T16:14:53.792Z,10.8
2022-11-22T16:16:53.540Z,10.5
2022-11-22T16:19:08.746Z,10.8
2022-11-22T16:21:01.604Z,10.8
2022-11-22T16:23:16.415Z,10.4
2022-11-22T16:25:23.069Z,10.3
2022-11-22T16:26:55.714Z,9.9
2022-11-22T16:28:55.149Z,13.2
2022-11-22T16:30:54.102Z,10.2
2022-11-22T16:32:52.773Z,11.3
2022-11-22T16:35:08.515Z,12.4
2022-11-22T16:36:52.584Z,11.3
2022-11-22T16:38:52.571Z,13
2022-11-22T16:40:53.689Z,9.9
2022-11-22T16:42:52.429Z,11.3
2022-11-22T16:44:52.342Z,10.8
2022-11-22T16:46:52.083Z,8.9
2022-11-22T16:48:52.323Z,9
2022-11-22T16:50:57.560Z,8.6
2022-11-22T16:52:52.104Z,8.1
2022-11-22T16:54:51.847Z,8.2
2022-11-22T16:56:51.662Z,8.8
2022-11-22T16:58:54.193Z,8.9
2022-11-22T17:00:51.692Z,9.1
2022-11-22T17:02:51.618Z,7.4
2022-11-22T17:04:51.371Z,9.1
2022-11-22T17:06:52.054Z,9.8
2022-11-22T17:08:53.406Z,9.3
2022-11-22T17:10:52.073Z,9.8
2022-11-22T17:12:51.424Z,11.6
2022-11-22T17:14:52.085Z,8.5
2022-11-22T17:16:51.195Z,9.1
2022-11-22T17:18:51.558Z,7.2
2022-11-22T17:20:51.849Z,7.5
2022-11-22T17:22:50.735Z,7.3
2022-11-22T17:24:50.549Z,9.5
2022-11-22T17:26:50.692Z,7.9
2022-11-22T17:28:50.379Z,7.8
2022-11-22T17:30:50.701Z,6.5
2022-11-22T17:32:50.261Z,7.9
2022-11-22T17:34:50.078Z,7.8
2022-11-22T17:36:50.151Z,8.8
2022-11-22T17:38:50.207Z,9.9
2022-11-22T17:40:58.070Z,5.8
2022-11-22T17:42:49.954Z,9.7
2022-11-22T17:44:49.910Z,9.1
2022-11-22T17:46:49.702Z,9.2
2022-11-22T17:48:51.841Z,9.1
2022-11-22T17:50:49.396Z,9
2022-11-22T17:52:51.326Z,10.9
2022-11-22T17:54:49.269Z,8.6
2022-11-22T17:56:49.266Z,9.9
2022-11-22T17:58:49.167Z,8.2
2022-11-22T18:00:49.151Z,9.9
2022-11-22T18:02:49.040Z,10.1
2022-11-22T18:04:49.072Z,9.4
2022-11-22T18:06:48.722Z,11.5
2022-11-22T18:08:48.622Z,8.5
2022-11-22T18:10:51.942Z,9.5
2022-11-22T18:13:13.503Z,8.4
2022-11-22T18:14:48.327Z,8.6
2022-11-22T18:16:48.853Z,9.4
2022-11-22T18:18:56.861Z,10.1
2022-11-22T18:20:48.573Z,8.7
2022-11-22T18:22:48.508Z,8.7
2022-11-22T18:24:47.946Z,12.4
2022-11-22T18:26:47.761Z,10
2022-11-22T18:29:08.723Z,10.1
2022-11-22T18:30:47.680Z,12.2
2022-11-22T18:32:47.461Z,10.6
2022-11-22T18:34:47.508Z,9.8
2022-11-22T18:36:57.691Z,9.1
2022-11-22T18:38:50.588Z,8.7
2022-11-22T18:40:47.326Z,10.5
2022-11-22T18:42:46.989Z,10.8
2022-11-22T18:44:46.954Z,11.3
2022-11-22T18:46:47.075Z,12
2022-11-22T18:48:48.579Z,10.4
2022-11-22T18:50:46.648Z,11.8
2022-11-22T18:52:46.480Z,11.8
2022-11-22T18:54:46.442Z,9.5
2022-11-22T18:56:46.323Z,11.2
2022-11-22T18:58:46.247Z,10.8
2022-11-22T19:00:46.339Z,10.4
2022-11-22T19:02:46.867Z,13.9
2022-11-22T19:04:46.028Z,10.7
2022-11-22T19:06:46.197Z,9.7
2022-11-22T19:08:46.831Z,11.7
2022-11-22T19:10:55.307Z,12.1
2022-11-22T19:12:45.656Z,10.7
2022-11-22T19:14:45.683Z,10.3
2022-11-22T19:16:45.488Z,10.4
2022-11-22T19:18:45.518Z,12.3
2022-11-22T19:20:54.955Z,9.5
2022-11-22T19:22:45.157Z,8.8
2022-11-22T19:24:47.369Z,10.7
2022-11-22T19:26:45.028Z,8.7
2022-11-22T19:28:45.209Z,8.4
2022-11-22T19:30:44.811Z,7.7
2022-11-22T19:32:45.895Z,8.9
2022-11-22T19:34:44.618Z,7.7
2022-11-22T19:36:44.590Z,8.1
2022-11-22T19:38:45.123Z,6.6
2022-11-22T19:40:44.319Z,6
2022-11-22T19:42:44.278Z,6.3
2022-11-22T19:44:44.118Z,6
2022-11-22T19:46:44.385Z,8.1
2022-11-22T19:48:47.276Z,7.1
2022-11-22T19:50:44.442Z,4.8
2022-11-22T19:52:43.752Z,3.5
2022-11-22T19:54:43.770Z,5.3
2022-11-22T19:56:43.717Z,5
2022-11-22T19:58:48.707Z,4.1
2022-11-22T20:00:43.546Z,3.8
2022-11-22T20:02:43.266Z,3.1
2022-11-22T20:04:43.297Z,4.2
2022-11-22T20:06:48.592Z,3.3
2022-11-22T20:08:43.430Z,3.1
2022-11-22T20:10:42.979Z,3.2
2022-11-22T20:12:43.884Z,2.6
2022-11-22T20:14:42.790Z,2.9
2022-11-22T20:16:42.895Z,3.1
2022-11-22T20:18:42.823Z,2.4
2022-11-22T20:20:42.927Z,2.9
2022-11-22T20:22:42.318Z,3.5
2022-11-22T20:24:42.419Z,4.6
2022-11-22T20:26:42.189Z,4.5
2022-11-22T20:28:43.916Z,4.4
2022-11-22T20:30:41.954Z,4.3
2022-11-22T20:32:42.406Z,5.9
2022-11-22T20:34:41.750Z,5.3
2022-11-22T20:36:41.715Z,4
2022-11-22T20:38:43.224Z,4.3
2022-11-22T20:40:41.484Z,3.9
2022-11-22T20:42:41.814Z,4
2022-11-22T20:44:41.532Z,5.1
2022-11-22T20:46:41.781Z,3.8
2022-11-22T20:48:43.299Z,4.4
2022-11-22T20:50:41.073Z,4.1
2022-11-22T20:52:40.988Z,3
2022-11-22T20:54:40.937Z,3.1
2022-11-22T20:56:41.007Z,3.6
2022-11-22T20:58:41.341Z,3.8
2022-11-22T21:00:40.687Z,2.4
2022-11-22T21:02:40.598Z,3.8
2022-11-22T21:04:40.540Z,3.3
2022-11-22T21:06:40.421Z,3.1
2022-11-22T21:08:40.788Z,3.8
2022-11-22T21:10:40.259Z,3
2022-11-22T21:12:40.253Z,3.5
2022-11-22T21:14:40.096Z,5.2
2022-11-22T21:16:40.166Z,4
2022-11-22T21:18:40.034Z,3.1
2022-11-22T21:20:39.850Z,2.9
2022-11-22T21:22:40.369Z,4.3
2022-11-22T21:24:39.767Z,6.3
2022-11-22T21:26:39.626Z,3.2
2022-11-22T21:28:39.551Z,3.8
2022-11-22T21:30:39.461Z,4.5
2022-11-22T21:32:39.513Z,5.6
2022-11-22T21:34:39.556Z,6.1
2022-11-22T21:36:39.187Z,4.1
2022-11-22T21:38:39.174Z,5.7
2022-11-22T21:40:39.165Z,3.7
2022-11-22T21:42:39.025Z,4.7
2022-11-22T21:44:39.486Z,5.8
2022-11-22T21:46:39.096Z,4
2022-11-22T21:48:38.735Z,6
2022-11-22T21:50:38.680Z,4.3
2022-11-22T21:52:38.546Z,3.9
2022-11-22T21:54:38.484Z,5.3
2022-11-22T21:56:38.436Z,3.9
2022-11-22T21:58:38.339Z,5.2
2022-11-22T22:00:38.156Z,6.3
2022-11-22T22:02:38.139Z,4.6
2022-11-22T22:04:38.063Z,4.8
2022-11-22T22:06:42.304Z,6
2022-11-22T22:08:37.999Z,6.9
2022-11-22T22:10:37.742Z,7.5
2022-11-22T22:12:38.104Z,5.7
2022-11-22T22:14:37.636Z,5
2022-11-22T22:16:37.555Z,5.9
2022-11-22T22:18:38.231Z,5.8
2022-11-22T22:20:37.427Z,6
2022-11-22T22:22:37.789Z,4.6
2022-11-22T22:24:37.388Z,6.3
2022-11-22T22:26:37.240Z,4.2
2022-11-22T22:28:38.359Z,7.3
2022-11-22T22:30:37.087Z,5.5
2022-11-22T22:32:37.125Z,5.8
2022-11-22T22:34:37.060Z,5.8
2022-11-22T22:36:36.945Z,5.9
2022-11-22T22:38:37.317Z,5.6
2022-11-22T22:40:37.051Z,5.6
2022-11-22T22:42:36.651Z,5.2
2022-11-22T22:44:36.826Z,5.4
2022-11-22T22:46:36.483Z,6.4
2022-11-22T22:48:36.704Z,4.8
2022-11-22T22:50:36.423Z,5.5
2022-11-22T22:52:36.469Z,7.6
2022-11-22T22:54:36.196Z,6.5
2022-11-22T22:56:36.216Z,5.1
2022-11-22T22:58:36.350Z,5.6
2022-11-22T23:00:35.995Z,4.7
2022-11-22T23:02:35.935Z,5.8
2022-11-22T23:04:35.924Z,4.9
2022-11-22T23:06:37.622Z,4.2
2022-11-22T23:08:36.763Z,4
2022-11-22T23:10:35.771Z,3.9
2022-11-22T23:12:35.552Z,4.4
2022-11-22T23:14:35.436Z,4.3
2022-11-22T23:16:37.594Z,3.2
2022-11-22T23:18:36.995Z,4.1
2022-11-22T23:20:35.225Z,4.1
2022-11-22T23:22:35.132Z,3.7
2022-11-22T23:24:34.985Z,3.5
2022-11-22T23:26:35.536Z,3.6
2022-11-22T23:28:35.085Z,3.4
2022-11-22T23:30:34.971Z,3.5
2022-11-22T23:32:34.721Z,2.8
2022-11-22T23:34:34.650Z,3.3
2022-11-22T23:36:40.175Z,3.6
2022-11-22T23:38:35.480Z,2.2
2022-11-22T23:40:34.415Z,2.8
2022-11-22T23:42:34.354Z,3.3
2022-11-22T23:44:34.231Z,2.5
2022-11-22T23:46:34.284Z,2.7
2022-11-22T23:48:34.117Z,2.3
2022-11-22T23:50:37.328Z,3.4
2022-11-22T23:52:34.042Z,2.7
2022-11-22T23:54:34.004Z,2.9
2022-11-22T23:56:34.202Z,2.7
2022-11-22T23:58:34.372Z,2.8
